Steveston Lifeboat — VOQQ — position and weather

sailwx.info

Track history (hours):
 
Tides and Currents Weather Stations Pressure Air Temp Water Temp Dewpoint Dewpoint Depression Visibility Wind Speed Wind Dir Waves Ship Positions

Steveston Lifeboat

Last reported at 2014-Oct-29 00:25 UTC. Time now 2014-Oct-30 13:00 UTC.
Position N 49°07' W 123°11'.

Length 15 m.

Type: SAR. MMSI: 316012135.

Date/timePositionNaut miles runAvg speedWind from/ knotsBaromVisibWave heightAir tempDewpointWater temp
2014-Oct-29 00:25N 49°07' W 123°11'2 2.9
2014-Oct-28 23:33N 49°06' W 123°07'1 1.4
2014-Oct-28 22:33N 49°07' W 123°05'0 0.3
2014-Oct-28 21:33N 49°07' W 123°06'4 3.6
2014-Oct-28 20:33N 49°07' W 123°11'0 0.5
2014-Oct-28 19:33N 49°07' W 123°12'0 0.0
2014-Oct-28 18:33N 49°07' W 123°12'0 0.0
2014-Oct-28 17:33N 49°07' W 123°12'0 0.4
2014-Oct-28 16:33N 49°07' W 123°12'5 4.5
2014-Oct-28 15:33N 49°07' W 123°05'4 4.1
2014-Oct-28 14:33N 49°07' W 123°11'0 0.0
2014-Oct-28 13:33N 49°07' W 123°11'0 0.0
2014-Oct-28 12:33N 49°07' W 123°11'0 0.0
2014-Oct-28 11:32N 49°07' W 123°11'0 0.0
2014-Oct-28 10:27N 49°07' W 123°11'0 0.0
2014-Oct-28 09:30N 49°07' W 123°11'0 0.0
2014-Oct-28 08:32N 49°07' W 123°11'0 0.0
2014-Oct-28 07:33N 49°07' W 123°11'0 0.0
2014-Oct-28 06:27N 49°07' W 123°11'0 0.0
2014-Oct-28 05:33N 49°07' W 123°11'0 0.0
2014-Oct-28 04:32N 49°07' W 123°11'0 0.0
2014-Oct-28 03:33N 49°07' W 123°11'0 0.0
2014-Oct-28 02:33N 49°07' W 123°11'0 0.0
2014-Oct-28 01:33N 49°07' W 123°11'0 0.0
2014-Oct-28 00:33N 49°07' W 123°11'0 0.0
2014-Oct-27 23:33N 49°07' W 123°11'0 0.0
2014-Oct-27 22:33N 49°07' W 123°11'0 0.0
2014-Oct-27 21:30N 49°07' W 123°11'0 0.0
2014-Oct-27 20:33N 49°07' W 123°11'0 0.0
2014-Oct-27 19:33N 49°07' W 123°11'0 0.0
2014-Oct-27 18:33N 49°07' W 123°11'0 0.0
2014-Oct-27 17:33N 49°07' W 123°11'0 0.0
2014-Oct-27 16:33N 49°07' W 123°11'0 0.0
2014-Oct-27 15:33N 49°07' W 123°11'0 0.0
2014-Oct-27 14:33N 49°07' W 123°11'0 0.0
2014-Oct-27 13:33N 49°07' W 123°11'0 0.0
2014-Oct-27 12:33N 49°07' W 123°11'0 0.0
2014-Oct-27 11:33N 49°07' W 123°11'0 0.0
2014-Oct-27 10:33N 49°07' W 123°11'0 0.0
2014-Oct-27 09:32N 49°07' W 123°11'0 0.0
2014-Oct-27 08:28N 49°07' W 123°11'0 0.0
2014-Oct-27 07:30N 49°07' W 123°11'0 0.0
2014-Oct-27 06:33N 49°07' W 123°11'0 0.0
2014-Oct-27 05:33N 49°07' W 123°11'0 0.0
2014-Oct-27 04:33N 49°07' W 123°11'0 0.0
2014-Oct-27 03:33N 49°07' W 123°11'0 0.0
2014-Oct-27 02:33N 49°07' W 123°11'0 0.0
2014-Oct-27 01:33N 49°07' W 123°11'0 0.0
2014-Oct-27 00:33N 49°07' W 123°11'0 0.0
2014-Oct-26 23:28N 49°07' W 123°11'0 0.0
2014-Oct-26 22:31N 49°07' W 123°11'0 0.0
2014-Oct-26 21:30N 49°07' W 123°11'0 0.0
2014-Oct-26 19:19N 49°07' W 123°11'0 0.0
2014-Oct-26 18:31N 49°07' W 123°11'0 0.0
2014-Oct-26 17:31N 49°07' W 123°11'0 0.0
2014-Oct-26 16:31N 49°07' W 123°11'0 0.0
2014-Oct-26 14:33N 49°07' W 123°11'0 0.0
2014-Oct-26 13:28N 49°07' W 123°11'0 0.0
2014-Oct-26 12:33N 49°07' W 123°11'0 0.0
2014-Oct-26 11:33N 49°07' W 123°11'0 0.0
2014-Oct-26 10:33N 49°07' W 123°11'0 0.0
2014-Oct-26 09:33N 49°07' W 123°11'0 0.0
2014-Oct-26 08:33N 49°07' W 123°11'0 0.0
2014-Oct-26 07:32N 49°07' W 123°11'0 0.0
2014-Oct-26 06:32N 49°07' W 123°11'0 0.0
2014-Oct-26 05:29N 49°07' W 123°11'0 0.0
2014-Oct-26 04:30N 49°07' W 123°11'0 0.0
2014-Oct-26 03:30N 49°07' W 123°11'0 0.0
2014-Oct-26 02:32N 49°07' W 123°11'0 0.0
2014-Oct-26 01:33N 49°07' W 123°11'0 0.0
2014-Oct-26 00:33N 49°07' W 123°11'0 0.0
2014-Oct-25 23:33N 49°07' W 123°11'0 0.0
2014-Oct-25 22:33N 49°07' W 123°11'0 0.0
2014-Oct-25 21:33N 49°07' W 123°11'0 0.0
2014-Oct-25 20:33N 49°07' W 123°11'0 0.0
2014-Oct-25 19:33N 49°07' W 123°11'0 0.0
2014-Oct-25 18:34N 49°07' W 123°11'7 6.7
2014-Oct-25 17:33N 49°09' W 123°01'4 4.5
2014-Oct-25 16:33N 49°11' W 122°55'7 7.5
2014-Oct-25 15:33N 49°07' W 123°05'4 0.1
2014-Oct-24 01:05N 49°07' W 123°11'2 3.1
2014-Oct-24 00:34N 49°07' W 123°09'8 7.6
2014-Oct-23 23:34N 49°09' W 122°58'5 4.9
2014-Oct-23 22:34N 49°07' W 123°05'2 1.6
2014-Oct-23 21:34N 49°08' W 123°03'6 5.9
2014-Oct-23 20:33N 49°07' W 123°12'3 3.5
2014-Oct-23 19:34N 49°07' W 123°07'0 0.1
2014-Oct-23 18:33N 49°07' W 123°07'3 2.7
2014-Oct-23 17:34N 49°07' W 123°11'  
Track history (hours):
 
Tides and Currents Weather Stations Pressure Air Temp Water Temp Dewpoint Dewpoint Depression Visibility Wind Speed Wind Dir Waves Ship Positions

Steveston Lifeboat

Last reported at 2014-Oct-29 00:25 UTC. Time now 2014-Oct-30 13:00 UTC.
Position N 49°07' W 123°11'.

Length 15 m.

Type: SAR. MMSI: 316012135.

Date/timePositionNaut miles runAvg speedWind from/ knotsBaromVisibWave heightAir tempDewpointWater temp
2014-Oct-29 00:25N 49°07' W 123°11'2 2.9
2014-Oct-28 23:33N 49°06' W 123°07'1 1.4
2014-Oct-28 22:33N 49°07' W 123°05'0 0.3
2014-Oct-28 21:33N 49°07' W 123°06'4 3.6
2014-Oct-28 20:33N 49°07' W 123°11'0 0.5
2014-Oct-28 19:33N 49°07' W 123°12'0 0.0
2014-Oct-28 18:33N 49°07' W 123°12'0 0.0
2014-Oct-28 17:33N 49°07' W 123°12'0 0.4
2014-Oct-28 16:33N 49°07' W 123°12'5 4.5
2014-Oct-28 15:33N 49°07' W 123°05'4 4.1
2014-Oct-28 14:33N 49°07' W 123°11'0 0.0
2014-Oct-28 13:33N 49°07' W 123°11'0 0.0
2014-Oct-28 12:33N 49°07' W 123°11'0 0.0
2014-Oct-28 11:32N 49°07' W 123°11'0 0.0
2014-Oct-28 10:27N 49°07' W 123°11'0 0.0
2014-Oct-28 09:30N 49°07' W 123°11'0 0.0
2014-Oct-28 08:32N 49°07' W 123°11'0 0.0
2014-Oct-28 07:33N 49°07' W 123°11'0 0.0
2014-Oct-28 06:27N 49°07' W 123°11'0 0.0
2014-Oct-28 05:33N 49°07' W 123°11'0 0.0
2014-Oct-28 04:32N 49°07' W 123°11'0 0.0
2014-Oct-28 03:33N 49°07' W 123°11'0 0.0
2014-Oct-28 02:33N 49°07' W 123°11'0 0.0
2014-Oct-28 01:33N 49°07' W 123°11'0 0.0
2014-Oct-28 00:33N 49°07' W 123°11'0 0.0
2014-Oct-27 23:33N 49°07' W 123°11'0 0.0
2014-Oct-27 22:33N 49°07' W 123°11'0 0.0
2014-Oct-27 21:30N 49°07' W 123°11'0 0.0
2014-Oct-27 20:33N 49°07' W 123°11'0 0.0
2014-Oct-27 19:33N 49°07' W 123°11'0 0.0
2014-Oct-27 18:33N 49°07' W 123°11'0 0.0
2014-Oct-27 17:33N 49°07' W 123°11'0 0.0
2014-Oct-27 16:33N 49°07' W 123°11'0 0.0
2014-Oct-27 15:33N 49°07' W 123°11'0 0.0
2014-Oct-27 14:33N 49°07' W 123°11'0 0.0
2014-Oct-27 13:33N 49°07' W 123°11'0 0.0
2014-Oct-27 12:33N 49°07' W 123°11'0 0.0
2014-Oct-27 11:33N 49°07' W 123°11'0 0.0
2014-Oct-27 10:33N 49°07' W 123°11'0 0.0
2014-Oct-27 09:32N 49°07' W 123°11'0 0.0
2014-Oct-27 08:28N 49°07' W 123°11'0 0.0
2014-Oct-27 07:30N 49°07' W 123°11'0 0.0
2014-Oct-27 06:33N 49°07' W 123°11'0 0.0
2014-Oct-27 05:33N 49°07' W 123°11'0 0.0
2014-Oct-27 04:33N 49°07' W 123°11'0 0.0
2014-Oct-27 03:33N 49°07' W 123°11'0 0.0
2014-Oct-27 02:33N 49°07' W 123°11'0 0.0
2014-Oct-27 01:33N 49°07' W 123°11'0 0.0
2014-Oct-27 00:33N 49°07' W 123°11'0 0.0
2014-Oct-26 23:28N 49°07' W 123°11'0 0.0
2014-Oct-26 22:31N 49°07' W 123°11'0 0.0
2014-Oct-26 21:30N 49°07' W 123°11'0 0.0
2014-Oct-26 19:19N 49°07' W 123°11'0 0.0
2014-Oct-26 18:31N 49°07' W 123°11'0 0.0
2014-Oct-26 17:31N 49°07' W 123°11'0 0.0
2014-Oct-26 16:31N 49°07' W 123°11'0 0.0
2014-Oct-26 14:33N 49°07' W 123°11'0 0.0
2014-Oct-26 13:28N 49°07' W 123°11'0 0.0
2014-Oct-26 12:33N 49°07' W 123°11'0 0.0
2014-Oct-26 11:33N 49°07' W 123°11'0 0.0
2014-Oct-26 10:33N 49°07' W 123°11'0 0.0
2014-Oct-26 09:33N 49°07' W 123°11'0 0.0
2014-Oct-26 08:33N 49°07' W 123°11'0 0.0
2014-Oct-26 07:32N 49°07' W 123°11'0 0.0
2014-Oct-26 06:32N 49°07' W 123°11'0 0.0
2014-Oct-26 05:29N 49°07' W 123°11'0 0.0
2014-Oct-26 04:30N 49°07' W 123°11'0 0.0
2014-Oct-26 03:30N 49°07' W 123°11'0 0.0
2014-Oct-26 02:32N 49°07' W 123°11'0 0.0
2014-Oct-26 01:33N 49°07' W 123°11'0 0.0
2014-Oct-26 00:33N 49°07' W 123°11'0 0.0
2014-Oct-25 23:33N 49°07' W 123°11'0 0.0
2014-Oct-25 22:33N 49°07' W 123°11'0 0.0
2014-Oct-25 21:33N 49°07' W 123°11'0 0.0
2014-Oct-25 20:33N 49°07' W 123°11'0 0.0
2014-Oct-25 19:33N 49°07' W 123°11'0 0.0
2014-Oct-25 18:34N 49°07' W 123°11'7 6.7
2014-Oct-25 17:33N 49°09' W 123°01'4 4.5
2014-Oct-25 16:33N 49°11' W 122°55'7 7.5
2014-Oct-25 15:33N 49°07' W 123°05'4 0.1
2014-Oct-24 01:05N 49°07' W 123°11'2 3.1
2014-Oct-24 00:34N 49°07' W 123°09'8 7.6
2014-Oct-23 23:34N 49°09' W 122°58'5 4.9
2014-Oct-23 22:34N 49°07' W 123°05'2 1.6
2014-Oct-23 21:34N 49°08' W 123°03'6 5.9
2014-Oct-23 20:33N 49°07' W 123°12'3 3.5
2014-Oct-23 19:34N 49°07' W 123°07'0 0.1
2014-Oct-23 18:33N 49°07' W 123°07'3 2.7
2014-Oct-23 17:34N 49°07' W 123°11'  

Dump ship's entire track history